createdAt,value
2018-06-02T00:00:55.607Z,1009.98
2018-06-02T00:01:55.618Z,1009.96
2018-06-02T00:02:55.620Z,1009.93
2018-06-02T00:03:55.619Z,1009.96
2018-06-02T00:04:55.620Z,1009.95
2018-06-02T00:05:55.626Z,1009.97
2018-06-02T00:06:55.623Z,1009.95
2018-06-02T00:07:55.630Z,1009.93
2018-06-02T00:08:55.635Z,1009.95
2018-06-02T00:09:55.635Z,1009.94
2018-06-02T00:10:55.635Z,1009.94
2018-06-02T00:11:55.639Z,1009.96
2018-06-02T00:12:55.643Z,1009.96
2018-06-02T00:13:55.654Z,1009.93
2018-06-02T00:14:55.645Z,1009.93
2018-06-02T00:15:55.647Z,1009.94
2018-06-02T00:16:55.651Z,1009.98
2018-06-02T00:17:55.655Z,1009.98
2018-06-02T00:18:55.654Z,1009.98
2018-06-02T00:19:55.664Z,1009.97
2018-06-02T00:20:55.660Z,1009.96
2018-06-02T00:21:55.665Z,1009.92
2018-06-02T00:22:55.664Z,1009.93
2018-06-02T00:23:55.668Z,1009.93
2018-06-02T00:24:55.671Z,1009.92
2018-06-02T00:25:55.675Z,1009.91
2018-06-02T00:26:55.674Z,1009.92
2018-06-02T00:27:55.679Z,1009.92
2018-06-02T00:28:55.679Z,1009.92
2018-06-02T00:29:55.685Z,1009.94
2018-06-02T00:30:55.683Z,1009.97
2018-06-02T00:31:55.686Z,1009.96
2018-06-02T00:32:55.692Z,1010.00
2018-06-02T00:33:55.695Z,1010.01
2018-06-02T00:34:55.698Z,1010.01
2018-06-02T00:35:55.700Z,1010.02
2018-06-02T00:36:55.703Z,1010.02
2018-06-02T00:37:55.705Z,1010.03
2018-06-02T00:38:55.751Z,1009.99
2018-06-02T00:39:55.710Z,1010.05
2018-06-02T00:40:55.716Z,1010.05
2018-06-02T00:41:55.721Z,1010.06
2018-06-02T00:42:55.720Z,1010.03
2018-06-02T00:43:55.723Z,1010.01
2018-06-02T00:44:55.727Z,1010.03
2018-06-02T00:45:55.723Z,1010.00
2018-06-02T00:46:55.729Z,1009.97
2018-06-02T00:47:55.736Z,1010.01
2018-06-02T00:48:55.733Z,1009.99
2018-06-02T00:49:55.738Z,1009.96
2018-06-02T00:50:55.744Z,1010.01
2018-06-02T00:51:55.742Z,1009.99
2018-06-02T00:52:55.752Z,1009.98
2018-06-02T00:53:55.747Z,1009.99
2018-06-02T00:54:55.751Z,1010.00
2018-06-02T00:55:55.760Z,1009.99
2018-06-02T00:56:55.751Z,1009.98
2018-06-02T00:57:55.754Z,1009.99
2018-06-02T00:58:55.760Z,1009.99
2018-06-02T00:59:55.759Z,1009.93
2018-06-02T01:00:55.766Z,1009.93
2018-06-02T01:01:55.767Z,1009.91
2018-06-02T01:02:55.769Z,1009.93
2018-06-02T01:03:55.771Z,1009.94
2018-06-02T01:04:55.776Z,1009.91
2018-06-02T01:05:55.777Z,1009.92
2018-06-02T01:06:55.778Z,1009.92
2018-06-02T01:07:55.791Z,1009.93
2018-06-02T01:08:55.781Z,1009.95
2018-06-02T01:09:55.796Z,1009.93
2018-06-02T01:10:55.792Z,1009.95
2018-06-02T01:11:55.799Z,1009.96
2018-06-02T01:12:55.800Z,1009.95
2018-06-02T01:13:55.797Z,1009.95
2018-06-02T01:14:55.800Z,1009.96
2018-06-02T01:15:55.805Z,1009.95
2018-06-02T01:16:55.804Z,1009.94
2018-06-02T01:17:55.806Z,1009.95
2018-06-02T01:18:55.809Z,1009.92
2018-06-02T01:19:55.816Z,1009.95
2018-06-02T01:20:55.871Z,1009.94
2018-06-02T01:21:55.814Z,1009.95
2018-06-02T01:22:55.819Z,1009.97
2018-06-02T01:23:55.822Z,1010.02
2018-06-02T01:24:55.827Z,1009.98
2018-06-02T01:25:55.827Z,1009.96
2018-06-02T01:26:55.834Z,1009.98
2018-06-02T01:27:55.833Z,1009.95
2018-06-02T01:28:55.835Z,1010.00
2018-06-02T01:29:55.839Z,1009.99
2018-06-02T01:30:55.840Z,1009.99
2018-06-02T01:31:55.844Z,1009.99
2018-06-02T01:32:55.855Z,1010.05
2018-06-02T01:33:55.847Z,1009.97
2018-06-02T01:34:55.847Z,1009.96
2018-06-02T01:35:55.854Z,1009.93
2018-06-02T01:36:55.862Z,1009.93
2018-06-02T01:37:55.866Z,1009.92
2018-06-02T01:38:55.861Z,1009.92
2018-06-02T01:39:55.864Z,1009.90
2018-06-02T01:40:55.869Z,1009.87
2018-06-02T01:41:55.867Z,1009.88
2018-06-02T01:42:55.875Z,1009.87
2018-06-02T01:43:55.877Z,1009.88
2018-06-02T01:44:55.877Z,1009.86
2018-06-02T01:45:55.877Z,1009.87
2018-06-02T01:46:55.881Z,1009.92
2018-06-02T01:47:55.885Z,1009.89
2018-06-02T01:48:55.889Z,1009.91
2018-06-02T01:49:55.890Z,1009.94
2018-06-02T01:50:55.894Z,1009.96
2018-06-02T01:51:55.902Z,1009.96
2018-06-02T01:52:55.901Z,1009.97
2018-06-02T01:53:55.901Z,1010.02
2018-06-02T01:54:55.904Z,1009.95
2018-06-02T01:55:55.908Z,1009.97
2018-06-02T01:56:55.910Z,1009.97
2018-06-02T01:57:55.913Z,1009.99
2018-06-02T01:58:55.919Z,1009.94
2018-06-02T01:59:55.918Z,1009.94
2018-06-02T02:00:55.922Z,1009.95
2018-06-02T02:01:55.926Z,1009.96
2018-06-02T02:02:55.931Z,1009.95
2018-06-02T02:03:55.928Z,1009.96
2018-06-02T02:04:55.931Z,1009.99
2018-06-02T02:05:55.938Z,1009.98
2018-06-02T02:06:55.937Z,1009.96
2018-06-02T02:07:55.942Z,1009.99
2018-06-02T02:08:55.951Z,1009.97
2018-06-02T02:09:55.950Z,1009.96
2018-06-02T02:10:55.949Z,1009.97
2018-06-02T02:11:55.950Z,1009.96
2018-06-02T02:12:55.956Z,1009.98
2018-06-02T02:13:55.959Z,1009.96
2018-06-02T02:14:55.959Z,1009.94
2018-06-02T02:15:55.963Z,1009.94
2018-06-02T02:16:55.967Z,1009.90
2018-06-02T02:17:55.969Z,1009.93
2018-06-02T02:18:55.971Z,1009.91
2018-06-02T02:19:55.975Z,1009.93
2018-06-02T02:20:55.976Z,1009.93
2018-06-02T02:21:55.982Z,1009.91
2018-06-02T02:22:55.984Z,1009.89
2018-06-02T02:23:55.987Z,1009.89
2018-06-02T02:24:55.989Z,1009.92
2018-06-02T02:25:55.989Z,1009.94
2018-06-02T02:26:55.993Z,1009.95
2018-06-02T02:27:56.000Z,1009.95
2018-06-02T02:28:56.000Z,1009.96
2018-06-02T02:29:56.003Z,1009.98
2018-06-02T02:30:56.006Z,1009.95
2018-06-02T02:31:56.010Z,1009.95
2018-06-02T02:32:56.011Z,1009.97
2018-06-02T02:33:56.016Z,1009.95
2018-06-02T02:34:56.016Z,1009.99
2018-06-02T02:35:56.025Z,1010.04
2018-06-02T02:36:56.023Z,1010.08
2018-06-02T02:37:56.037Z,1010.06
2018-06-02T02:38:56.030Z,1010.06
2018-06-02T02:39:56.028Z,1010.08
2018-06-02T02:40:56.037Z,1010.08
2018-06-02T02:41:56.038Z,1010.10
2018-06-02T02:42:56.040Z,1010.12
2018-06-02T02:43:56.045Z,1010.08
2018-06-02T02:44:56.050Z,1010.06
2018-06-02T02:45:56.050Z,1010.06
2018-06-02T02:46:56.055Z,1010.08
2018-06-02T02:47:56.055Z,1010.04
2018-06-02T02:48:56.059Z,1010.04
2018-06-02T02:49:56.062Z,1010.02
2018-06-02T02:50:56.063Z,1010.04
2018-06-02T02:51:56.066Z,1010.04
2018-06-02T02:52:56.078Z,1010.02
2018-06-02T02:53:56.074Z,1010.05
2018-06-02T02:54:56.073Z,1010.03
2018-06-02T02:55:56.078Z,1010.04
2018-06-02T02:56:56.079Z,1010.04
2018-06-02T02:57:56.085Z,1010.07
2018-06-02T02:58:56.087Z,1010.07
2018-06-02T02:59:56.093Z,1010.01
2018-06-02T03:00:56.092Z,1010.01
2018-06-02T03:01:56.097Z,1010.02
2018-06-02T03:02:56.104Z,1010.05
2018-06-02T03:03:56.101Z,1010.03
2018-06-02T03:04:56.100Z,1010.03
2018-06-02T03:05:56.113Z,1010.04
2018-06-02T03:06:56.114Z,1010.04
2018-06-02T03:07:56.116Z,1010.07
2018-06-02T03:08:56.116Z,1010.09
2018-06-02T03:09:56.126Z,1010.11
2018-06-02T03:10:56.120Z,1010.10
2018-06-02T03:11:56.125Z,1010.13
2018-06-02T03:12:56.128Z,1010.15
2018-06-02T03:13:56.133Z,1010.16
2018-06-02T03:14:56.135Z,1010.18
2018-06-02T03:15:56.135Z,1010.19
2018-06-02T03:16:56.142Z,1010.20
2018-06-02T03:17:56.143Z,1010.19
2018-06-02T03:18:56.144Z,1010.19
2018-06-02T03:19:56.149Z,1010.20
2018-06-02T03:20:56.148Z,1010.19
2018-06-02T03:21:56.155Z,1010.17
2018-06-02T03:22:56.158Z,1010.17
2018-06-02T03:23:56.158Z,1010.21
2018-06-02T03:24:56.161Z,1010.19
2018-06-02T03:25:56.165Z,1010.20
2018-06-02T03:26:56.167Z,1010.18
2018-06-02T03:27:56.167Z,1010.18
2018-06-02T03:28:56.173Z,1010.18
2018-06-02T03:29:56.181Z,1010.21
2018-06-02T03:30:56.179Z,1010.16
2018-06-02T03:31:56.179Z,1010.22
2018-06-02T03:32:56.182Z,1010.19
2018-06-02T03:33:56.188Z,1010.21
2018-06-02T03:34:56.190Z,1010.19
2018-06-02T03:35:56.196Z,1010.18
2018-06-02T03:36:56.196Z,1010.17
2018-06-02T03:37:56.200Z,1010.19
2018-06-02T03:38:56.207Z,1010.18
2018-06-02T03:39:56.204Z,1010.20
2018-06-02T03:40:56.212Z,1010.24
2018-06-02T03:41:56.211Z,1010.23
2018-06-02T03:42:56.213Z,1010.26
2018-06-02T03:43:56.216Z,1010.25
2018-06-02T03:44:56.219Z,1010.27
2018-06-02T03:45:56.225Z,1010.25
2018-06-02T03:46:56.227Z,1010.26
2018-06-02T03:47:56.232Z,1010.25
2018-06-02T03:48:56.231Z,1010.27
2018-06-02T03:49:56.234Z,1010.27
2018-06-02T03:50:56.236Z,1010.26
2018-06-02T03:51:56.246Z,1010.24
2018-06-02T03:52:56.244Z,1010.24
2018-06-02T03:53:56.248Z,1010.24
2018-06-02T03:54:56.247Z,1010.25
2018-06-02T03:55:56.253Z,1010.24
2018-06-02T03:56:56.259Z,1010.22
2018-06-02T03:57:56.260Z,1010.20
2018-06-02T03:58:56.256Z,1010.19
2018-06-02T03:59:56.264Z,1010.18
2018-06-02T04:00:56.267Z,1010.16
2018-06-02T04:01:56.271Z,1010.13
2018-06-02T04:02:56.275Z,1010.13
2018-06-02T04:03:56.278Z,1010.14
2018-06-02T04:04:56.279Z,1010.16
2018-06-02T04:05:56.284Z,1010.12
2018-06-02T04:06:56.283Z,1010.15
2018-06-02T04:07:56.287Z,1010.17
2018-06-02T04:08:56.294Z,1010.14
2018-06-02T04:09:56.302Z,1010.15
2018-06-02T04:10:56.298Z,1010.15
2018-06-02T04:11:56.300Z,1010.18
2018-06-02T04:12:56.304Z,1010.19
2018-06-02T04:13:56.307Z,1010.17
2018-06-02T04:14:56.308Z,1010.20
2018-06-02T04:15:56.368Z,1010.23
2018-06-02T04:16:56.316Z,1010.23
2018-06-02T04:17:56.323Z,1010.21
2018-06-02T04:18:56.326Z,1010.25
2018-06-02T04:19:56.327Z,1010.28
2018-06-02T04:20:56.329Z,1010.30
2018-06-02T04:21:56.332Z,1010.28
2018-06-02T04:22:56.334Z,1010.30
2018-06-02T04:23:56.341Z,1010.30
2018-06-02T04:24:56.351Z,1010.32
2018-06-02T04:25:56.339Z,1010.30
2018-06-02T04:26:56.352Z,1010.31
2018-06-02T04:27:56.349Z,1010.34
2018-06-02T04:28:56.353Z,1010.37
2018-06-02T04:29:56.362Z,1010.37
2018-06-02T04:30:56.360Z,1010.37
2018-06-02T04:31:56.364Z,1010.39
2018-06-02T04:32:56.365Z,1010.35
2018-06-02T04:33:56.371Z,1010.34
2018-06-02T04:34:56.377Z,1010.32
2018-06-02T04:35:56.376Z,1010.35
2018-06-02T04:36:56.377Z,1010.37
2018-06-02T04:37:56.383Z,1010.35
2018-06-02T04:38:56.386Z,1010.33
2018-06-02T04:39:56.390Z,1010.36
2018-06-02T04:40:56.393Z,1010.39
2018-06-02T04:41:56.397Z,1010.36
2018-06-02T04:42:56.405Z,1010.37
2018-06-02T04:43:56.405Z,1010.36
2018-06-02T04:44:56.408Z,1010.37
2018-06-02T04:45:56.419Z,1010.38
2018-06-02T04:46:56.411Z,1010.39
2018-06-02T04:47:56.417Z,1010.40
2018-06-02T04:48:56.416Z,1010.38
2018-06-02T04:49:56.423Z,1010.42
2018-06-02T04:50:56.425Z,1010.42
2018-06-02T04:51:56.431Z,1010.40
2018-06-02T04:52:56.434Z,1010.44
2018-06-02T04:53:56.438Z,1010.46
2018-06-02T04:54:56.438Z,1010.43
2018-06-02T04:55:56.443Z,1010.41
2018-06-02T04:56:56.474Z,1010.42
2018-06-02T04:57:56.447Z,1010.43
2018-06-02T04:58:56.452Z,1010.41
2018-06-02T04:59:56.459Z,1010.44
2018-06-02T05:00:56.459Z,1010.44
2018-06-02T05:01:56.466Z,1010.43
2018-06-02T05:02:56.467Z,1010.46
2018-06-02T05:03:56.470Z,1010.41
2018-06-02T05:04:56.476Z,1010.46
2018-06-02T05:05:56.479Z,1010.48
2018-06-02T05:06:56.480Z,1010.46
2018-06-02T05:07:56.484Z,1010.51
2018-06-02T05:08:56.487Z,1010.51
2018-06-02T05:09:56.493Z,1010.54
2018-06-02T05:10:56.499Z,1010.51
2018-06-02T05:11:56.499Z,1010.51
2018-06-02T05:12:56.503Z,1010.49
2018-06-02T05:13:56.503Z,1010.52
2018-06-02T05:14:56.513Z,1010.48
2018-06-02T05:15:56.517Z,1010.48
2018-06-02T05:16:56.517Z,1010.48
2018-06-02T05:17:56.520Z,1010.50
2018-06-02T05:18:56.526Z,1010.47
2018-06-02T05:19:56.527Z,1010.47
2018-06-02T05:20:56.538Z,1010.52
2018-06-02T05:21:56.540Z,1010.53
2018-06-02T05:22:56.538Z,1010.54
2018-06-02T05:23:56.542Z,1010.50
2018-06-02T05:24:56.545Z,1010.55
2018-06-02T05:25:56.555Z,1010.51
2018-06-02T05:26:56.553Z,1010.54
2018-06-02T05:27:56.552Z,1010.55
2018-06-02T05:28:56.557Z,1010.49
2018-06-02T05:29:56.565Z,1010.54
2018-06-02T05:30:56.567Z,1010.53
2018-06-02T05:31:56.571Z,1010.54
2018-06-02T05:32:56.576Z,1010.54
2018-06-02T05:33:56.584Z,1010.58
2018-06-02T05:34:56.581Z,1010.56
2018-06-02T05:35:56.585Z,1010.54
2018-06-02T05:36:56.589Z,1010.53
2018-06-02T05:37:56.593Z,1010.55
2018-06-02T05:38:56.599Z,1010.54
2018-06-02T05:39:56.601Z,1010.52
2018-06-02T05:40:56.607Z,1010.54
2018-06-02T05:41:56.606Z,1010.54
2018-06-02T05:42:56.610Z,1010.57
2018-06-02T05:43:56.617Z,1010.60
2018-06-02T05:44:56.618Z,1010.59
2018-06-02T05:45:56.628Z,1010.59
2018-06-02T05:46:56.621Z,1010.58
2018-06-02T05:47:56.629Z,1010.58
2018-06-02T05:48:56.632Z,1010.57
2018-06-02T05:49:56.637Z,1010.57
2018-06-02T05:50:56.641Z,1010.57
2018-06-02T05:51:56.642Z,1010.60
2018-06-02T05:52:56.646Z,1010.61
2018-06-02T05:53:56.650Z,1010.58
2018-06-02T05:54:56.654Z,1010.63
2018-06-02T05:55:56.656Z,1010.63
2018-06-02T05:56:56.661Z,1010.66
2018-06-02T05:57:56.666Z,1010.66
2018-06-02T05:58:56.669Z,1010.66
2018-06-02T05:59:56.689Z,1010.65
2018-06-02T06:00:56.680Z,1010.63
2018-06-02T06:01:56.680Z,1010.66
2018-06-02T06:02:56.681Z,1010.66
2018-06-02T06:03:56.686Z,1010.63
2018-06-02T06:04:56.690Z,1010.62
2018-06-02T06:05:56.694Z,1010.63
2018-06-02T06:06:56.701Z,1010.62
2018-06-02T06:07:56.700Z,1010.62
2018-06-02T06:08:56.709Z,1010.63
2018-06-02T06:09:56.711Z,1010.63
2018-06-02T06:10:56.714Z,1010.65
2018-06-02T06:11:56.720Z,1010.62
2018-06-02T06:12:56.720Z,1010.60
2018-06-02T06:13:56.724Z,1010.58
2018-06-02T06:14:56.727Z,1010.56
2018-06-02T06:15:56.737Z,1010.56
2018-06-02T06:16:56.735Z,1010.60
2018-06-02T06:17:56.741Z,1010.57
2018-06-02T06:18:56.741Z,1010.55
2018-06-02T06:19:56.747Z,1010.57
2018-06-02T06:20:56.750Z,1010.55
2018-06-02T06:21:56.758Z,1010.56
2018-06-02T06:22:56.757Z,1010.59
2018-06-02T06:23:56.761Z,1010.58
2018-06-02T06:24:56.764Z,1010.58
2018-06-02T06:25:56.778Z,1010.59
2018-06-02T06:26:56.825Z,1010.59
2018-06-02T06:27:56.777Z,1010.55
2018-06-02T06:28:56.782Z,1010.60
2018-06-02T06:29:56.784Z,1010.60
2018-06-02T06:30:56.787Z,1010.62
2018-06-02T06:31:56.796Z,1010.58
2018-06-02T06:32:56.830Z,1010.60
2018-06-02T06:33:56.799Z,1010.60
2018-06-02T06:34:56.798Z,1010.62
2018-06-02T06:35:56.811Z,1010.60
2018-06-02T06:36:56.809Z,1010.61
2018-06-02T06:37:56.813Z,1010.60
2018-06-02T06:38:56.817Z,1010.63
2018-06-02T06:39:56.822Z,1010.64
2018-06-02T06:40:56.827Z,1010.65
2018-06-02T06:41:56.839Z,1010.60
2018-06-02T06:42:56.833Z,1010.68
2018-06-02T06:43:56.838Z,1010.66
2018-06-02T06:44:56.845Z,1010.68
2018-06-02T06:45:56.846Z,1010.69
2018-06-02T06:46:56.849Z,1010.70
2018-06-02T06:47:56.851Z,1010.69
2018-06-02T06:48:56.858Z,1010.69
2018-06-02T06:49:56.861Z,1010.65
2018-06-02T06:50:56.865Z,1010.67
2018-06-02T06:51:56.868Z,1010.67
2018-06-02T06:52:56.879Z,1010.66
2018-06-02T06:53:56.878Z,1010.71
2018-06-02T06:54:56.882Z,1010.66
2018-06-02T06:55:56.889Z,1010.63
2018-06-02T06:56:56.892Z,1010.70
2018-06-02T06:57:56.895Z,1010.68
2018-06-02T06:58:56.900Z,1010.68
2018-06-02T06:59:56.904Z,1010.67
2018-06-02T07:00:56.905Z,1010.69
2018-06-02T07:01:56.911Z,1010.64
2018-06-02T07:02:56.916Z,1010.67
2018-06-02T07:03:56.918Z,1010.68
2018-06-02T07:04:56.924Z,1010.65
2018-06-02T07:05:56.935Z,1010.64
2018-06-02T07:06:56.936Z,1010.67
2018-06-02T07:07:56.934Z,1010.67
2018-06-02T07:08:57.000Z,1010.70
2018-06-02T07:09:56.946Z,1010.69
2018-06-02T07:10:56.952Z,1010.67
2018-06-02T07:11:56.998Z,1010.66
2018-06-02T07:12:56.958Z,1010.69
2018-06-02T07:13:56.958Z,1010.66
2018-06-02T07:14:56.964Z,1010.63
2018-06-02T07:15:56.968Z,1010.71
2018-06-02T07:16:56.976Z,1010.74
2018-06-02T07:17:56.981Z,1010.71
2018-06-02T07:18:56.985Z,1010.73
2018-06-02T07:19:56.992Z,1010.72
2018-06-02T07:20:56.997Z,1010.70
2018-06-02T07:21:57.002Z,1010.71
2018-06-02T07:22:57.009Z,1010.72
2018-06-02T07:23:57.014Z,1010.71
2018-06-02T07:24:57.016Z,1010.74
2018-06-02T07:25:57.020Z,1010.77
2018-06-02T07:26:57.024Z,1010.83
2018-06-02T07:27:57.029Z,1010.83
2018-06-02T07:28:57.039Z,1010.85
2018-06-02T07:29:57.046Z,1010.85
2018-06-02T07:30:57.043Z,1010.91
2018-06-02T07:31:57.050Z,1010.87
2018-06-02T07:32:57.062Z,1010.88
2018-06-02T07:33:57.063Z,1010.91
2018-06-02T07:34:57.067Z,1010.91
2018-06-02T07:35:57.072Z,1010.92
2018-06-02T07:36:57.079Z,1010.98
2018-06-02T07:37:57.085Z,1010.97
2018-06-02T07:38:57.091Z,1011.02
2018-06-02T07:39:57.096Z,1010.99
2018-06-02T07:40:57.102Z,1011.01
2018-06-02T07:41:57.109Z,1010.98
2018-06-02T07:42:57.115Z,1011.00
2018-06-02T07:43:57.130Z,1010.97
2018-06-02T07:44:57.129Z,1011.03
2018-06-02T07:45:57.135Z,1010.97
2018-06-02T07:46:57.142Z,1010.92
2018-06-02T07:47:57.149Z,1010.93
2018-06-02T07:48:57.155Z,1011.02
2018-06-02T07:49:57.258Z,1011.03
2018-06-02T07:50:57.171Z,1010.99
2018-06-02T07:51:57.176Z,1010.97
2018-06-02T07:52:57.184Z,1010.99
2018-06-02T07:53:57.192Z,1011.00
2018-06-02T07:54:57.200Z,1011.02
2018-06-02T07:55:57.207Z,1011.02
2018-06-02T07:56:57.219Z,1011.02
2018-06-02T07:57:57.223Z,1011.01
2018-06-02T07:58:57.230Z,1010.99
2018-06-02T07:59:57.238Z,1010.99
2018-06-02T08:00:57.246Z,1010.86
2018-06-02T08:01:57.254Z,1010.96
2018-06-02T08:02:57.260Z,1011.01
2018-06-02T08:03:57.268Z,1010.97
2018-06-02T08:04:57.276Z,1010.95
2018-06-02T08:05:57.281Z,1010.89
2018-06-02T08:06:57.302Z,1010.97
2018-06-02T08:07:57.302Z,1010.97
2018-06-02T08:08:57.306Z,1010.99
2018-06-02T08:09:57.320Z,1011.01
2018-06-02T08:10:57.317Z,1011.01
2018-06-02T08:11:57.330Z,1010.97
2018-06-02T08:12:57.336Z,1011.03
2018-06-02T08:13:57.347Z,1011.00
2018-06-02T08:14:57.350Z,1010.97
2018-06-02T08:15:57.359Z,1011.01
2018-06-02T08:16:57.365Z,1010.96
2018-06-02T08:17:57.378Z,1010.92
2018-06-02T08:18:57.384Z,1010.93
2018-06-02T08:19:57.390Z,1010.88
2018-06-02T08:20:57.398Z,1010.90
2018-06-02T08:21:57.404Z,1010.94
2018-06-02T08:22:57.412Z,1011.02
2018-06-02T08:23:57.420Z,1011.08
2018-06-02T08:24:57.428Z,1011.00
2018-06-02T08:25:57.436Z,1010.98
2018-06-02T08:26:57.442Z,1010.95
2018-06-02T08:27:57.450Z,1010.99
2018-06-02T08:28:57.458Z,1011.04
2018-06-02T08:29:57.465Z,1011.03
2018-06-02T08:30:57.472Z,1011.06
2018-06-02T08:31:57.479Z,1011.08
2018-06-02T08:32:57.487Z,1011.11
2018-06-02T08:33:57.494Z,1011.13
2018-06-02T08:34:57.500Z,1011.11
2018-06-02T08:35:57.512Z,1011.17
2018-06-02T08:36:57.514Z,1011.15
2018-06-02T08:37:57.522Z,1011.17
2018-06-02T08:38:57.579Z,1011.15
2018-06-02T08:39:57.539Z,1011.15
2018-06-02T08:40:57.543Z,1011.18
2018-06-02T08:41:57.550Z,1011.27
2018-06-02T08:42:57.558Z,1011.28
2018-06-02T08:43:57.564Z,1011.26
2018-06-02T08:44:57.575Z,1011.27
2018-06-02T08:45:57.582Z,1011.27
2018-06-02T08:46:57.590Z,1011.27
2018-06-02T08:47:57.600Z,1011.42
2018-06-02T08:48:57.605Z,1011.25
2018-06-02T08:49:57.614Z,1011.25
2018-06-02T08:50:57.619Z,1011.28
2018-06-02T08:51:57.626Z,1011.35
2018-06-02T08:52:57.634Z,1011.24
2018-06-02T08:53:57.641Z,1011.25
2018-06-02T08:54:57.657Z,1011.41
2018-06-02T08:55:57.652Z,1011.31
2018-06-02T08:56:57.661Z,1011.21
2018-06-02T08:57:57.669Z,1011.26
2018-06-02T08:58:57.673Z,1011.23
2018-06-02T08:59:57.680Z,1011.21
2018-06-02T09:00:57.689Z,1011.15
2018-06-02T09:01:57.695Z,1011.20
2018-06-02T09:02:57.700Z,1011.23
2018-06-02T09:03:57.709Z,1011.23
2018-06-02T09:04:57.715Z,1011.21
2018-06-02T09:05:57.722Z,1011.20
2018-06-02T09:06:57.728Z,1011.19
2018-06-02T09:07:57.736Z,1011.24
2018-06-02T09:08:57.741Z,1011.27
2018-06-02T09:09:57.758Z,1011.26
2018-06-02T09:10:57.754Z,1011.26
2018-06-02T09:11:57.761Z,1011.26
2018-06-02T09:12:57.775Z,1011.26
2018-06-02T09:13:57.776Z,1011.21
2018-06-02T09:14:57.777Z,1011.26
2018-06-02T09:15:57.800Z,1011.25
2018-06-02T09:16:57.796Z,1011.28
2018-06-02T09:17:57.796Z,1011.26
2018-06-02T09:18:57.803Z,1011.28
2018-06-02T09:19:57.844Z,1011.30
2018-06-02T09:20:57.822Z,1011.29
2018-06-02T09:21:57.825Z,1011.32
2018-06-02T09:22:57.825Z,1011.33
2018-06-02T09:23:57.834Z,1011.30
2018-06-02T09:24:57.845Z,1011.27
2018-06-02T09:25:57.851Z,1011.28
2018-06-02T09:26:57.855Z,1011.31
2018-06-02T09:27:57.884Z,1011.29
2018-06-02T09:28:57.863Z,1011.25
2018-06-02T09:29:57.870Z,1011.26
2018-06-02T09:30:57.878Z,1011.28
2018-06-02T09:31:57.883Z,1011.27
2018-06-02T09:32:57.890Z,1011.29
2018-06-02T09:33:57.896Z,1011.33
2018-06-02T09:34:57.910Z,1011.32
2018-06-02T09:35:57.907Z,1011.32
2018-06-02T09:36:57.924Z,1011.31
2018-06-02T09:37:57.926Z,1011.32
2018-06-02T09:38:57.928Z,1011.33
2018-06-02T09:39:57.938Z,1011.36
2018-06-02T09:40:57.943Z,1011.34
2018-06-02T09:41:57.954Z,1011.33
2018-06-02T09:42:57.962Z,1011.35
2018-06-02T09:43:57.963Z,1011.28
2018-06-02T09:44:57.969Z,1011.31
2018-06-02T09:45:57.975Z,1011.28
2018-06-02T09:46:57.983Z,1011.27
2018-06-02T09:47:58.001Z,1011.25
2018-06-02T09:48:57.995Z,1011.28
2018-06-02T09:49:58.001Z,1011.27
2018-06-02T09:50:58.013Z,1011.24
2018-06-02T09:51:58.017Z,1011.23
2018-06-02T09:52:58.020Z,1011.26
2018-06-02T09:53:58.026Z,1011.24
2018-06-02T09:54:58.036Z,1011.25
2018-06-02T09:55:58.039Z,1011.23
2018-06-02T09:56:58.048Z,1011.28
2018-06-02T09:57:58.054Z,1011.23
2018-06-02T09:58:58.062Z,1011.25
2018-06-02T09:59:58.073Z,1011.24
2018-06-02T10:00:58.075Z,1011.26
2018-06-02T10:01:58.084Z,1011.27
2018-06-02T10:02:58.082Z,1011.24
2018-06-02T10:03:58.089Z,1011.18
2018-06-02T10:04:58.102Z,1011.26
2018-06-02T10:05:58.103Z,1011.23
2018-06-02T10:06:58.107Z,1011.25
2018-06-02T10:07:58.113Z,1011.22
2018-06-02T10:08:58.119Z,1011.24
2018-06-02T10:09:58.125Z,1011.20
2018-06-02T10:10:58.130Z,1011.19
2018-06-02T10:11:58.137Z,1011.20
2018-06-02T10:12:58.143Z,1011.23
2018-06-02T10:13:58.153Z,1011.24
2018-06-02T10:14:58.155Z,1011.17
2018-06-02T10:15:58.161Z,1011.24
2018-06-02T10:16:58.168Z,1011.26
2018-06-02T10:17:58.170Z,1011.29
2018-06-02T10:18:58.179Z,1011.31
2018-06-02T10:19:58.181Z,1011.30
2018-06-02T10:20:58.193Z,1011.26
2018-06-02T10:21:58.193Z,1011.28
2018-06-02T10:22:58.197Z,1011.24
2018-06-02T10:23:58.210Z,1011.26
2018-06-02T10:24:58.214Z,1011.28
2018-06-02T10:25:58.215Z,1011.23
2018-06-02T10:26:58.221Z,1011.24
2018-06-02T10:27:58.225Z,1011.23
2018-06-02T10:28:58.230Z,1011.23
2018-06-02T10:29:58.237Z,1011.18
2018-06-02T10:30:58.241Z,1011.18
2018-06-02T10:31:58.243Z,1011.15
2018-06-02T10:32:58.256Z,1011.13
2018-06-02T10:33:58.260Z,1011.10
2018-06-02T10:34:58.304Z,1011.12
2018-06-02T10:35:58.270Z,1011.16
2018-06-02T10:36:58.277Z,1011.13
2018-06-02T10:37:58.282Z,1011.18
2018-06-02T10:38:58.285Z,1011.18
2018-06-02T10:39:58.291Z,1011.17
2018-06-02T10:40:58.297Z,1011.20
2018-06-02T10:41:58.305Z,1011.23
2018-06-02T10:42:58.316Z,1011.24
2018-06-02T10:43:58.316Z,1011.21
2018-06-02T10:44:58.328Z,1011.26
2018-06-02T10:45:58.329Z,1011.25
2018-06-02T10:46:58.337Z,1011.20
2018-06-02T10:47:58.342Z,1011.22
2018-06-02T10:48:58.349Z,1011.26
2018-06-02T10:49:58.356Z,1011.25
2018-06-02T10:50:58.361Z,1011.23
2018-06-02T10:51:58.369Z,1011.24
2018-06-02T10:52:58.373Z,1011.17
2018-06-02T10:53:58.388Z,1011.19
2018-06-02T10:54:58.390Z,1011.20
2018-06-02T10:55:58.449Z,1011.21
2018-06-02T10:56:58.401Z,1011.15
2018-06-02T10:57:58.411Z,1011.15
2018-06-02T10:58:58.757Z,1011.20
2018-06-02T10:59:58.424Z,1011.17
2018-06-02T11:00:58.424Z,1011.15
2018-06-02T11:01:58.439Z,1011.16
2018-06-02T11:02:58.446Z,1011.15
2018-06-02T11:03:58.451Z,1011.15
2018-06-02T11:04:58.502Z,1011.15
2018-06-02T11:05:58.469Z,1011.16
2018-06-02T11:06:58.462Z,1011.16
2018-06-02T11:07:58.470Z,1011.20
2018-06-02T11:08:58.509Z,1011.15
2018-06-02T11:09:58.483Z,1011.24
2018-06-02T11:10:58.491Z,1011.21
2018-06-02T11:11:58.495Z,1011.20
2018-06-02T11:12:58.502Z,1011.25
2018-06-02T11:13:58.511Z,1011.22
2018-06-02T11:14:58.514Z,1011.24
2018-06-02T11:15:58.523Z,1011.25
2018-06-02T11:16:58.527Z,1011.25
2018-06-02T11:17:58.535Z,1011.22
2018-06-02T11:18:58.539Z,1011.29
2018-06-02T11:19:58.552Z,1011.27
2018-06-02T11:20:58.552Z,1011.28
2018-06-02T11:21:58.560Z,1011.29
2018-06-02T11:22:58.569Z,1011.31
2018-06-02T11:23:58.574Z,1011.26
2018-06-02T11:24:58.580Z,1011.26
2018-06-02T11:25:58.585Z,1011.24
2018-06-02T11:26:58.590Z,1011.26
2018-06-02T11:27:58.598Z,1011.25
2018-06-02T11:28:58.604Z,1011.24
2018-06-02T11:29:58.612Z,1011.25
2018-06-02T11:30:58.617Z,1011.22
2018-06-02T11:31:58.624Z,1011.21
2018-06-02T11:32:58.630Z,1011.15
2018-06-02T11:33:58.639Z,1011.19
2018-06-02T11:34:58.644Z,1011.21
2018-06-02T11:35:58.652Z,1011.20
2018-06-02T11:36:58.658Z,1011.21
2018-06-02T11:37:58.672Z,1011.17
2018-06-02T11:38:58.683Z,1011.18
2018-06-02T11:39:58.683Z,1011.26
2018-06-02T11:40:58.687Z,1011.25
2018-06-02T11:41:58.693Z,1011.23
2018-06-02T11:42:58.698Z,1011.37
2018-06-02T11:43:58.717Z,1011.20
2018-06-02T11:44:58.712Z,1011.35
2018-06-02T11:45:58.718Z,1011.35
2018-06-02T11:46:58.727Z,1011.40
2018-06-02T11:47:58.732Z,1011.34
2018-06-02T11:48:58.739Z,1011.36
2018-06-02T11:49:58.747Z,1011.33
2018-06-02T11:50:58.753Z,1011.34
2018-06-02T11:51:58.762Z,1011.31
2018-06-02T11:52:58.769Z,1011.33
2018-06-02T11:53:58.778Z,1011.31
2018-06-02T11:54:58.782Z,1011.37
2018-06-02T11:55:58.789Z,1011.35
2018-06-02T11:56:58.796Z,1011.38
2018-06-02T11:57:58.802Z,1011.45
2018-06-02T11:58:58.810Z,1011.41
2018-06-02T11:59:58.820Z,1011.38
2018-06-02T12:00:58.866Z,1011.40
2018-06-02T12:01:58.831Z,1011.39
2018-06-02T12:02:58.838Z,1011.41
2018-06-02T12:03:58.844Z,1011.41
2018-06-02T12:04:58.851Z,1011.45
2018-06-02T12:05:58.858Z,1011.46